Time;durP1;ratioP1;P1;durP2;ratioP2;P2;SDS_P1;SDS_P2;PMS_P1;PMS_P2;Temp;Humidity;BMP_temperature;BMP_pressure;BME280_temperature;BME280_humidity;BME280_pressure;Samples;Min_cycle;Max_cycle;Signal;HPM_P1;HPM_P2
2021/07/29 00:01:37;;;;;;;5.60;4.78;;;;;;;;;;5115424;28;20067;-62
2021/07/29 00:04:02;;;;;;;5.40;4.90;;;;;;;;;;5115418;28;20036;-62
2021/07/29 00:06:28;;;;;;;5.63;4.65;;;;;;;;;;5097131;28;20044;-61
2021/07/29 00:08:53;;;;;;;5.35;4.85;;;;;;;;;;5115464;28;20047;-61
2021/07/29 00:11:19;;;;;;;5.18;4.68;;;;;;;;;;5115511;28;20027;-61
2021/07/29 00:13:45;;;;;;;4.65;4.35;;;;;;;;;;5115429;28;20051;-61
2021/07/29 00:16:11;;;;;;;4.97;4.50;;;;;;;;;;5115269;28;20509;-61
2021/07/29 00:21:21;;;;;;;5.10;4.65;;;;;;;;;;5115338;28;20411;-62
2021/07/29 00:23:48;;;;;;;5.43;4.93;;;;;;;;;;5115149;28;20024;-62
2021/07/29 00:26:13;;;;;;;5.43;4.63;;;;;;;;;;5114892;28;20043;-62
2021/07/29 00:28:39;;;;;;;5.10;4.60;;;;;;;;;;5115005;28;20395;-62
2021/07/29 00:31:04;;;;;;;4.90;4.50;;;;;;;;;;5114944;28;20027;-62
2021/07/29 00:33:30;;;;;;;5.63;4.88;;;;;;;;;;5114869;28;20028;-62
2021/07/29 00:35:55;;;;;;;6.53;4.65;;;;;;;;;;5114740;28;20093;-62
2021/07/29 00:38:21;;;;;;;5.53;5.03;;;;;;;;;;5114605;28;20357;-62
2021/07/29 00:40:47;;;;;;;4.90;4.50;;;;;;;;;;5115141;28;20032;-62
2021/07/29 00:43:15;;;;;;;6.32;4.88;;;;;;;;;;5114711;28;20019;-62
2021/07/29 00:45:40;;;;;;;5.65;5.15;;;;;;;;;;5114662;28;20044;-62
2021/07/29 00:48:06;;;;;;;5.13;4.60;;;;;;;;;;5114749;28;20047;-61
2021/07/29 00:50:32;;;;;;;4.97;4.50;;;;;;;;;;5114667;28;20046;-62
2021/07/29 00:52:57;;;;;;;5.13;4.72;;;;;;;;;;5114723;28;20039;-62
2021/07/29 00:55:23;;;;;;;5.75;5.10;;;;;;;;;;5096421;28;20395;-62
2021/07/29 00:57:48;;;;;;;5.65;5.15;;;;;;;;;;5114305;28;20102;-62
2021/07/29 01:00:14;;;;;;;5.35;4.45;;;;;;;;;;5114349;28;20392;-62
2021/07/29 01:02:40;;;;;;;8.07;5.13;;;;;;;;;;5096012;28;20076;-62
2021/07/29 01:05:06;;;;;;;5.38;4.93;;;;;;;;;;5114489;28;20039;-62
2021/07/29 01:07:32;;;;;;;5.18;4.68;;;;;;;;;;5114457;28;20030;-62
2021/07/29 01:09:57;;;;;;;5.13;4.63;;;;;;;;;;5114453;28;20126;-69
2021/07/29 01:12:23;;;;;;;4.70;4.35;;;;;;;;;;5114591;28;20034;-68
2021/07/29 01:14:48;;;;;;;5.28;4.88;;;;;;;;;;5114164;28;20028;-68
2021/07/29 01:17:14;;;;;;;5.28;4.78;;;;;;;;;;5114720;28;20023;-68
2021/07/29 01:19:39;;;;;;;5.53;4.47;;;;;;;;;;5114248;28;20027;-68
2021/07/29 01:22:05;;;;;;;5.13;4.45;;;;;;;;;;5114408;28;20030;-68
2021/07/29 01:24:30;;;;;;;4.93;4.50;;;;;;;;;;5114484;28;20046;-68
2021/07/29 01:26:56;;;;;;;8.15;4.78;;;;;;;;;;5114462;28;20486;-68
2021/07/29 01:29:22;;;;;;;6.15;5.18;;;;;;;;;;5096365;28;20036;-68
2021/07/29 01:31:48;;;;;;;4.70;4.30;;;;;;;;;;5114077;28;20094;-67
2021/07/29 01:34:16;;;;;;;5.30;4.80;;;;;;;;;;5114131;28;20169;-68
2021/07/29 01:36:41;;;;;;;5.47;5.07;;;;;;;;;;5113888;28;20073;-66
2021/07/29 01:39:07;;;;;;;5.53;5.03;;;;;;;;;;5092059;28;20117;-66
2021/07/29 01:41:33;;;;;;;5.25;4.85;;;;;;;;;;5093782;28;20193;-66
2021/07/29 01:43:58;;;;;;;5.60;5.05;;;;;;;;;;5093720;28;20036;-67
2021/07/29 01:46:29;;;;;;;5.43;4.85;;;;;;;;;;5093811;28;20028;-67
2021/07/29 01:48:55;;;;;;;5.65;5.15;;;;;;;;;;5094026;28;20127;-67
2021/07/29 01:51:22;;;;;;;5.88;5.40;;;;;;;;;;5092776;28;20107;-69
2021/07/29 01:53:47;;;;;;;6.00;5.45;;;;;;;;;;5092271;28;20554;-69
2021/07/29 01:56:14;;;;;;;5.55;5.07;;;;;;;;;;5093301;28;20119;-69
2021/07/29 01:58:39;;;;;;;6.35;5.85;;;;;;;;;;5093549;28;20379;-69
2021/07/29 02:01:05;;;;;;;5.75;5.25;;;;;;;;;;5093466;28;20028;-69
2021/07/29 02:03:31;;;;;;;6.15;5.65;;;;;;;;;;5093319;28;20058;-69
2021/07/29 02:06:01;;;;;;;6.13;5.53;;;;;;;;;;5093338;28;20476;-69
2021/07/29 02:08:27;;;;;;;6.33;5.63;;;;;;;;;;5093180;28;20036;-69
2021/07/29 02:10:52;;;;;;;6.82;6.00;;;;;;;;;;5093586;28;20032;-69
2021/07/29 02:13:19;;;;;;;6.10;5.60;;;;;;;;;;5093194;28;20373;-69
2021/07/29 02:15:45;;;;;;;6.68;6.07;;;;;;;;;;5093169;28;20035;-69
2021/07/29 02:18:11;;;;;;;6.20;5.72;;;;;;;;;;5093455;28;20082;-69
2021/07/29 02:20:36;;;;;;;6.95;6.05;;;;;;;;;;5092996;28;20474;-68
2021/07/29 02:23:04;;;;;;;6.32;5.57;;;;;;;;;;5093122;28;20060;-69
2021/07/29 02:25:29;;;;;;;6.80;6.10;;;;;;;;;;5093076;28;20028;-69
2021/07/29 02:27:55;;;;;;;6.63;6.03;;;;;;;;;;5092019;28;20077;-68
2021/07/29 02:30:20;;;;;;;7.28;6.05;;;;;;;;;;5092979;28;20054;-68
2021/07/29 02:32:47;;;;;;;6.40;5.80;;;;;;;;;;5092656;28;20040;-66
2021/07/29 02:35:13;;;;;;;6.90;6.20;;;;;;;;;;5091737;28;20085;-67
2021/07/29 02:37:39;;;;;;;6.68;6.07;;;;;;;;;;5093395;28;20032;-67
2021/07/29 02:40:05;;;;;;;6.22;5.57;;;;;;;;;;5112993;28;20130;-67
2021/07/29 02:42:32;;;;;;;6.65;6.05;;;;;;;;;;5113394;28;20119;-69
2021/07/29 02:44:59;;;;;;;7.07;6.47;;;;;;;;;;5094905;28;20069;-69
2021/07/29 02:47:25;;;;;;;6.80;5.72;;;;;;;;;;5113305;28;20038;-67
2021/07/29 02:49:50;;;;;;;6.63;5.85;;;;;;;;;;5113183;28;20032;-62
2021/07/29 02:52:16;;;;;;;5.93;5.45;;;;;;;;;;5094842;28;20039;-62
2021/07/29 02:54:41;;;;;;;7.88;5.68;;;;;;;;;;5113212;28;20101;-63
2021/07/29 02:57:07;;;;;;;4.97;4.63;;;;;;;;;;5112937;28;20035;-63
2021/07/29 02:59:34;;;;;;;5.93;4.90;;;;;;;;;;5113024;28;20110;-69
2021/07/29 13:05:06;;;;;;;3.78;3.47;;;;;;;;;;5114558;28;20034;-68
2021/07/29 13:07:31;;;;;;;4.32;3.92;;;;;;;;;;5094272;28;20031;-67
2021/07/29 13:09:56;;;;;;;4.35;3.95;;;;;;;;;;5093838;28;20051;-68
2021/07/29 13:12:22;;;;;;;3.85;3.55;;;;;;;;;;5113190;28;20027;-68
2021/07/29 13:14:47;;;;;;;4.13;3.33;;;;;;;;;;5112633;28;20042;-68
2021/07/29 13:17:13;;;;;;;4.30;3.90;;;;;;;;;;5112781;28;20035;-68
2021/07/29 13:19:38;;;;;;;6.95;3.85;;;;;;;;;;5113113;28;20127;-67
2021/07/29 13:22:04;;;;;;;4.60;4.20;;;;;;;;;;5113760;28;20031;-68
2021/07/29 13:24:29;;;;;;;5.88;3.88;;;;;;;;;;5114250;28;20032;-68
2021/07/29 13:26:55;;;;;;;3.97;3.53;;;;;;;;;;5113922;28;20028;-67
2021/07/29 13:29:20;;;;;;;4.45;3.70;;;;;;;;;;5113823;28;20035;-68
2021/07/29 13:31:46;;;;;;;5.18;3.65;;;;;;;;;;5095550;28;20039;-69
2021/07/29 13:34:11;;;;;;;3.63;3.25;;;;;;;;;;5113684;28;20040;-68
2021/07/29 13:36:37;;;;;;;3.60;3.40;;;;;;;;;;5113572;28;20038;-67
2021/07/29 13:39:03;;;;;;;5.28;3.60;;;;;;;;;;5113176;28;20046;-67
2021/07/29 13:41:28;;;;;;;3.55;3.30;;;;;;;;;;5113678;28;20032;-68
2021/07/29 13:43:54;;;;;;;4.03;3.25;;;;;;;;;;5113652;28;20042;-68
2021/07/29 13:46:19;;;;;;;3.88;3.47;;;;;;;;;;5113261;28;20528;-68
2021/07/29 13:48:45;;;;;;;3.85;3.55;;;;;;;;;;5095107;28;20047;-68
2021/07/29 13:51:10;;;;;;;3.85;3.55;;;;;;;;;;5113709;28;20131;-68
2021/07/29 13:53:35;;;;;;;4.38;3.38;;;;;;;;;;5113574;28;20085;-68
2021/07/29 13:56:01;;;;;;;3.45;3.13;;;;;;;;;;5113423;28;20046;-68
2021/07/29 13:58:26;;;;;;;3.65;3.15;;;;;;;;;;5095402;28;20024;-69
2021/07/29 14:00:52;;;;;;;3.75;3.28;;;;;;;;;;5113461;28;20019;-69
2021/07/29 14:03:17;;;;;;;3.65;3.35;;;;;;;;;;5113407;28;20071;-69
2021/07/29 14:05:43;;;;;;;3.25;3.05;;;;;;;;;;5113516;28;20027;-69
2021/07/29 14:08:09;;;;;;;5.00;3.00;;;;;;;;;;5113536;28;20027;-70
2021/07/29 14:10:35;;;;;;;3.40;3.20;;;;;;;;;;5113494;28;20054;-69
2021/07/29 14:13:01;;;;;;;3.13;2.92;;;;;;;;;;5113388;28;20040;-68
2021/07/29 14:15:26;;;;;;;4.28;3.10;;;;;;;;;;5113281;28;20032;-69
2021/07/29 14:18:02;;;;;;;3.55;3.25;;;;;;;;;;5112816;28;20404;-69
2021/07/29 14:20:32;;;;;;;4.32;3.50;;;;;;;;;;5113395;28;20051;-68
2021/07/29 14:23:08;;;;;;;;;;;;;;;;;;5113711;28;20063;-69
2021/07/29 14:25:37;;;;;;;4.40;3.05;;;;;;;;;;5111355;28;19908;-68
2021/07/29 14:28:03;;;;;;;3.60;3.28;;;;;;;;;;5113119;28;20369;-68
2021/07/29 14:30:28;;;;;;;3.42;3.22;;;;;;;;;;5113505;28;20126;-68
2021/07/29 14:32:54;;;;;;;3.08;2.80;;;;;;;;;;5113476;28;20114;-67
2021/07/29 14:35:19;;;;;;;3.60;3.30;;;;;;;;;;5113385;28;20040;-68
2021/07/29 14:37:45;;;;;;;4.57;3.85;;;;;;;;;;5113115;28;20024;-69
2021/07/29 14:40:11;;;;;;;4.03;3.45;;;;;;;;;;5113381;28;20032;-67
2021/07/29 14:42:37;;;;;;;3.45;3.17;;;;;;;;;;5112928;28;20100;-68
2021/07/29 14:50:12;;;;;;;3.88;3.58;;;;;;;;;;5094882;28;20047;-67
2021/07/29 14:52:38;;;;;;;3.90;3.60;;;;;;;;;;5113172;28;20479;-67
2021/07/29 14:55:12;;;;;;;3.75;3.47;;;;;;;;;;5113131;28;20122;-67
2021/07/29 16:08:43;;;;;;;3.13;2.92;;;;;;;;;;5113576;28;20050;-62
2021/07/29 16:11:09;;;;;;;4.37;2.83;;;;;;;;;;5110986;28;20040;-61
2021/07/29 16:13:41;;;;;;;3.25;2.97;;;;;;;;;;5113577;28;20023;-61
2021/07/29 16:16:07;;;;;;;7.03;3.33;;;;;;;;;;5113896;28;20378;-61
2021/07/29 16:18:33;;;;;;;3.17;2.97;;;;;;;;;;5113791;28;20020;-61
2021/07/29 16:20:59;;;;;;;3.00;2.80;;;;;;;;;;5113755;28;20496;-61
2021/07/29 16:23:24;;;;;;;3.10;2.90;;;;;;;;;;5113682;28;20115;-61
2021/07/29 16:25:49;;;;;;;3.33;3.08;;;;;;;;;;5095345;28;20035;-61
2021/07/29 16:28:15;;;;;;;3.83;3.20;;;;;;;;;;5113691;28;20062;-61
2021/07/29 16:30:40;;;;;;;3.67;3.40;;;;;;;;;;5113411;28;20027;-61
2021/07/29 16:33:06;;;;;;;2.92;2.72;;;;;;;;;;5113406;28;20023;-62
2021/07/29 16:35:31;;;;;;;2.85;2.65;;;;;;;;;;5113486;28;20475;-61
2021/07/29 16:37:57;;;;;;;4.28;3.50;;;;;;;;;;5114019;28;20160;-61
2021/07/29 16:40:22;;;;;;;3.45;3.15;;;;;;;;;;5114862;28;20032;-61
2021/07/29 16:42:48;;;;;;;3.33;3.10;;;;;;;;;;5114765;28;20111;-61
2021/07/29 16:45:13;;;;;;;3.33;3.13;;;;;;;;;;5114609;28;20034;-61
2021/07/29 16:47:38;;;;;;;3.45;3.17;;;;;;;;;;5112713;28;20076;-61
2021/07/29 16:50:04;;;;;;;3.22;3.00;;;;;;;;;;5112333;28;20402;-61
2021/07/29 16:52:29;;;;;;;3.55;3.13;;;;;;;;;;5112489;28;20027;-61
2021/07/29 16:54:55;;;;;;;3.00;2.80;;;;;;;;;;5113060;28;20574;-62
2021/07/29 16:57:38;;;;;;;3.20;3.00;;;;;;;;;;5112849;28;20016;-61
2021/07/29 17:00:17;;;;;;;3.05;2.85;;;;;;;;;;5078652;28;20081;-61
2021/07/29 17:02:45;;;;;;;5.68;3.22;;;;;;;;;;5075967;28;20031;-61
2021/07/29 17:05:15;;;;;;;18.35;7.28;;;;;;;;;;5113141;28;20044;-61
2021/07/29 17:07:52;;;;;;;12.60;6.47;;;;;;;;;;5077601;28;20028;-61
2021/07/29 17:10:24;;;;;;;17.13;8.48;;;;;;;;;;5078318;28;20031;-61
2021/07/29 17:12:57;;;;;;;9.32;5.40;;;;;;;;;;5079155;28;20043;-61
2021/07/29 17:15:23;;;;;;;6.45;3.60;;;;;;;;;;5094670;28;20110;-61
2021/07/29 17:17:55;;;;;;;3.53;3.20;;;;;;;;;;5112718;28;20787;-62
2021/07/29 17:20:23;;;;;;;4.35;3.45;;;;;;;;;;5076044;28;20513;-61
2021/07/29 17:22:49;;;;;;;3.80;3.28;;;;;;;;;;5111588;28;20051;-61
2021/07/29 17:25:19;;;;;;;3.05;2.78;;;;;;;;;;5112557;28;20036;-61
2021/07/29 17:27:48;;;;;;;3.10;2.67;;;;;;;;;;5078124;28;20085;-62
2021/07/29 17:30:14;;;;;;;3.58;3.05;;;;;;;;;;5112632;28;20015;-61
2021/07/29 17:32:43;;;;;;;3.78;2.75;;;;;;;;;;5112855;28;20387;-61
2021/07/29 17:35:09;;;;;;;3.17;2.90;;;;;;;;;;5095066;28;20027;-61
2021/07/29 17:37:35;;;;;;;3.15;2.95;;;;;;;;;;5095225;28;20089;-61
2021/07/29 17:40:01;;;;;;;3.78;2.92;;;;;;;;;;5111581;28;20035;-61
2021/07/29 17:42:27;;;;;;;2.75;2.55;;;;;;;;;;5112261;28;20093;-61
2021/07/29 17:44:52;;;;;;;2.90;2.70;;;;;;;;;;5112657;28;20020;-61
2021/07/29 17:47:18;;;;;;;2.92;2.72;;;;;;;;;;5094136;28;20032;-61
2021/07/29 17:49:43;;;;;;;2.80;2.60;;;;;;;;;;5112240;28;20494;-61
2021/07/29 17:52:09;;;;;;;2.70;2.60;;;;;;;;;;5112490;28;20032;-61
2021/07/29 17:54:34;;;;;;;5.57;2.65;;;;;;;;;;5112231;28;20024;-61
2021/07/29 17:57:00;;;;;;;3.47;3.03;;;;;;;;;;5111985;28;20046;-61
2021/07/29 17:59:25;;;;;;;2.80;2.65;;;;;;;;;;5112592;28;20138;-61
2021/07/29 18:01:51;;;;;;;3.13;2.42;;;;;;;;;;5113208;28;20486;-61
2021/07/29 18:04:19;;;;;;;2.83;2.63;;;;;;;;;;5112292;28;20063;-61
2021/07/29 18:06:45;;;;;;;5.00;3.00;;;;;;;;;;5110829;28;20546;-61
2021/07/29 18:09:10;;;;;;;3.75;2.72;;;;;;;;;;5112174;28;20161;-61
2021/07/29 18:11:36;;;;;;;5.22;3.05;;;;;;;;;;5113197;28;20118;-61
2021/07/29 18:14:02;;;;;;;3.05;2.85;;;;;;;;;;5113902;28;20034;-61
2021/07/29 18:16:28;;;;;;;3.08;2.78;;;;;;;;;;5113374;28;20059;-61
2021/07/29 18:18:54;;;;;;;2.97;2.78;;;;;;;;;;5113703;28;20524;-61
2021/07/29 18:21:20;;;;;;;2.67;2.58;;;;;;;;;;5113848;28;20028;-61
2021/07/29 18:23:45;;;;;;;3.17;2.90;;;;;;;;;;5113432;28;20382;-61
2021/07/29 18:26:12;;;;;;;3.00;2.60;;;;;;;;;;5095210;28;20051;-61
2021/07/29 18:28:39;;;;;;;3.08;2.80;;;;;;;;;;5112328;28;20103;-61
2021/07/29 18:31:05;;;;;;;2.47;2.28;;;;;;;;;;5112900;28;20571;-61
2021/07/29 18:33:30;;;;;;;2.75;2.60;;;;;;;;;;5095082;28;20027;-61
2021/07/29 18:36:00;;;;;;;3.63;2.95;;;;;;;;;;5115575;28;20042;-61
2021/07/29 18:38:25;;;;;;;4.43;2.65;;;;;;;;;;5096057;28;20035;-61
2021/07/29 18:40:53;;;;;;;2.95;2.75;;;;;;;;;;5117052;28;20122;-61
2021/07/29 18:43:19;;;;;;;2.78;2.58;;;;;;;;;;5117270;28;20498;-61
2021/07/29 18:45:44;;;;;;;4.22;2.80;;;;;;;;;;5108285;28;20036;-61
2021/07/29 18:48:10;;;;;;;2.95;2.75;;;;;;;;;;5113984;28;20133;-60
2021/07/29 18:50:35;;;;;;;3.00;2.80;;;;;;;;;;5113776;28;20104;-61
2021/07/29 18:53:01;;;;;;;4.78;2.88;;;;;;;;;;5113706;28;20042;-61
2021/07/29 18:55:27;;;;;;;4.07;2.95;;;;;;;;;;5113284;28;20040;-61
2021/07/29 18:57:53;;;;;;;6.05;4.38;;;;;;;;;;5113724;28;20030;-61
2021/07/29 19:00:22;;;;;;;5.85;4.78;;;;;;;;;;5113684;28;20062;-61
2021/07/29 19:02:48;;;;;;;5.88;4.55;;;;;;;;;;5095062;28;20032;-61
2021/07/29 19:05:13;;;;;;;5.22;4.43;;;;;;;;;;5113380;28;20502;-61
2021/07/29 19:07:40;;;;;;;12.38;7.68;;;;;;;;;;5112923;28;20130;-60
2021/07/29 19:10:07;;;;;;;13.18;7.68;;;;;;;;;;5113370;28;20035;-61
2021/07/29 19:12:32;;;;;;;12.93;8.35;;;;;;;;;;5113506;28;20423;-60
2021/07/29 19:14:58;;;;;;;14.52;7.68;;;;;;;;;;5113423;28;20035;-61
2021/07/29 19:17:26;;;;;;;11.75;7.82;;;;;;;;;;5112555;28;20043;-61
2021/07/29 19:19:51;;;;;;;8.82;6.85;;;;;;;;;;5112274;28;20019;-60
2021/07/29 19:22:17;;;;;;;9.55;5.28;;;;;;;;;;5115598;28;20038;-61
2021/07/29 19:24:43;;;;;;;7.60;4.75;;;;;;;;;;5116187;28;20111;-61
2021/07/29 19:27:09;;;;;;;8.40;4.75;;;;;;;;;;5116497;28;20038;-61
2021/07/29 19:29:36;;;;;;;7.55;6.03;;;;;;;;;;5116477;28;20111;-61
2021/07/29 19:32:02;;;;;;;9.95;6.85;;;;;;;;;;5116415;28;20690;-61
2021/07/29 19:34:27;;;;;;;7.22;6.22;;;;;;;;;;5116433;28;20034;-60
2021/07/29 19:36:53;;;;;;;8.07;5.82;;;;;;;;;;5115761;28;20061;-61
2021/07/29 19:39:18;;;;;;;8.07;5.72;;;;;;;;;;5115723;28;20434;-61
2021/07/29 19:41:44;;;;;;;6.68;4.80;;;;;;;;;;5115999;28;20419;-61
2021/07/29 19:44:09;;;;;;;5.90;5.07;;;;;;;;;;5115464;28;20055;-60
2021/07/29 19:46:35;;;;;;;7.18;5.05;;;;;;;;;;5115028;28;20046;-61
2021/07/29 19:49:01;;;;;;;6.68;4.95;;;;;;;;;;5115965;28;20035;-61
2021/07/29 19:51:26;;;;;;;4.32;3.90;;;;;;;;;;5116026;28;20085;-61
2021/07/29 19:53:52;;;;;;;3.72;3.42;;;;;;;;;;5116174;28;20068;-61
2021/07/29 19:56:17;;;;;;;3.72;3.42;;;;;;;;;;5115812;28;20043;-59
2021/07/29 19:58:43;;;;;;;5.03;3.95;;;;;;;;;;5115872;28;20578;-63
2021/07/29 20:01:09;;;;;;;4.25;3.85;;;;;;;;;;5115830;28;20031;-63
2021/07/29 20:03:34;;;;;;;5.25;4.18;;;;;;;;;;5097754;28;20032;-62
2021/07/29 20:06:02;;;;;;;5.63;4.25;;;;;;;;;;5115758;28;20391;-62
2021/07/29 20:08:28;;;;;;;5.60;4.05;;;;;;;;;;5097295;28;20039;-65
2021/07/29 20:10:54;;;;;;;5.35;4.03;;;;;;;;;;5115310;28;20035;-63
2021/07/29 20:13:20;;;;;;;5.43;3.70;;;;;;;;;;5115605;28;20024;-62
2021/07/29 20:15:46;;;;;;;4.35;3.53;;;;;;;;;;5115514;28;20040;-62
2021/07/29 20:18:12;;;;;;;24.67;4.88;;;;;;;;;;5115672;28;20034;-66
2021/07/29 20:20:38;;;;;;;12.35;4.55;;;;;;;;;;5115881;28;20068;-66
2021/07/29 20:23:04;;;;;;;14.35;4.18;;;;;;;;;;5115077;28;20027;-67
2021/07/29 20:25:30;;;;;;;4.40;3.40;;;;;;;;;;5115443;28;20471;-66
2021/07/29 20:27:56;;;;;;;3.38;3.13;;;;;;;;;;5114571;28;20023;-66
2021/07/29 20:30:21;;;;;;;5.45;3.38;;;;;;;;;;5114532;28;20040;-64
2021/07/29 20:32:47;;;;;;;4.97;3.35;;;;;;;;;;5111842;28;20047;-65
2021/07/29 20:35:12;;;;;;;3.70;3.03;;;;;;;;;;5096894;28;20080;-66
2021/07/29 20:37:38;;;;;;;3.40;3.08;;;;;;;;;;5115162;28;20424;-62
2021/07/29 20:40:05;;;;;;;3.20;2.90;;;;;;;;;;5114780;28;20413;-62
2021/07/29 20:42:30;;;;;;;4.70;3.45;;;;;;;;;;5080097;28;20509;-61
2021/07/29 20:44:56;;;;;;;4.82;3.30;;;;;;;;;;5114951;28;20032;-61
2021/07/29 20:47:22;;;;;;;3.30;3.00;;;;;;;;;;5096654;28;20039;-61
2021/07/29 20:49:47;;;;;;;3.20;3.00;;;;;;;;;;5114875;28;20035;-62
2021/07/29 20:52:13;;;;;;;3.80;3.40;;;;;;;;;;5114942;28;20027;-61
2021/07/29 20:54:39;;;;;;;3.55;3.25;;;;;;;;;;5114931;28;20036;-61
2021/07/29 20:57:04;;;;;;;5.43;3.30;;;;;;;;;;5114169;28;20031;-61
2021/07/29 20:59:30;;;;;;;3.85;3.28;;;;;;;;;;5114569;28;20028;-61
2021/07/29 21:01:57;;;;;;;7.35;4.10;;;;;;;;;;5114629;28;20024;-63
2021/07/29 21:04:23;;;;;;;7.30;4.05;;;;;;;;;;5114688;28;20081;-62
2021/07/29 21:06:48;;;;;;;7.40;4.20;;;;;;;;;;5096657;28;20031;-62
2021/07/29 21:09:14;;;;;;;4.20;3.65;;;;;;;;;;5096528;28;20047;-62
2021/07/29 21:11:40;;;;;;;4.50;3.50;;;;;;;;;;5114176;28;20035;-61
2021/07/29 21:14:05;;;;;;;4.75;3.65;;;;;;;;;;5114620;28;20036;-62
2021/07/29 21:16:31;;;;;;;4.78;4.15;;;;;;;;;;5114460;28;20140;-65
2021/07/29 21:18:57;;;;;;;4.05;3.65;;;;;;;;;;5114579;28;20076;-65
2021/07/29 21:21:26;;;;;;;5.70;3.72;;;;;;;;;;5114270;28;20042;-67
2021/07/29 21:23:59;;;;;;;5.00;4.47;;;;;;;;;;5079484;28;20035;-62
2021/07/29 21:26:25;;;;;;;6.18;3.35;;;;;;;;;;5114040;28;20172;-62
2021/07/29 21:28:50;;;;;;;4.93;3.17;;;;;;;;;;5114141;28;20455;-65
2021/07/29 21:31:16;;;;;;;3.72;3.42;;;;;;;;;;5113962;28;20046;-62
2021/07/29 21:33:41;;;;;;;4.15;3.75;;;;;;;;;;5114132;28;20036;-62
2021/07/29 21:36:07;;;;;;;3.83;3.53;;;;;;;;;;5113651;28;20036;-62
2021/07/29 21:38:32;;;;;;;7.30;3.83;;;;;;;;;;5113359;28;20483;-62
2021/07/29 21:40:58;;;;;;;4.45;4.00;;;;;;;;;;5114244;28;20035;-62
2021/07/29 21:43:24;;;;;;;5.90;3.88;;;;;;;;;;5114034;28;20027;-63
2021/07/29 21:45:49;;;;;;;4.82;3.95;;;;;;;;;;5095681;28;20396;-62
2021/07/29 21:48:15;;;;;;;5.70;4.00;;;;;;;;;;5113911;28;20414;-62
2021/07/29 21:50:40;;;;;;;4.05;3.47;;;;;;;;;;5095546;28;20131;-62
2021/07/29 21:53:06;;;;;;;4.00;3.58;;;;;;;;;;5113954;28;20024;-62
2021/07/29 21:55:31;;;;;;;6.88;3.78;;;;;;;;;;5095241;28;20466;-62
2021/07/29 21:57:57;;;;;;;4.78;4.25;;;;;;;;;;5113694;28;20391;-64
2021/07/29 22:00:23;;;;;;;5.40;3.55;;;;;;;;;;5114032;28;20044;-65
2021/07/29 22:02:48;;;;;;;4.60;3.83;;;;;;;;;;5095338;28;20023;-65
2021/07/29 22:05:14;;;;;;;3.67;3.38;;;;;;;;;;5113624;28;20032;-65
2021/07/29 22:07:40;;;;;;;3.80;3.50;;;;;;;;;;5113976;28;20024;-64
2021/07/29 22:10:06;;;;;;;4.15;3.70;;;;;;;;;;5099718;28;20035;-66
2021/07/29 22:12:32;;;;;;;4.43;3.30;;;;;;;;;;5117950;28;20027;-66
2021/07/29 22:14:58;;;;;;;4.13;3.58;;;;;;;;;;5117956;28;20038;-67
